Time;durP1;ratioP1;P1;durP2;ratioP2;P2;SDS_P1;SDS_P2;PMS_P1;PMS_P2;Temp;Humidity;BMP_temperature;BMP_pressure;BME280_temperature;BME280_humidity;BME280_pressure;Samples;Min_cycle;Max_cycle;Signal;HPM_P1;HPM_P2
2024/01/28 00:00:22;;;;;;;25.17;10.00;;;;;;;-145.18;100.00;46873.31;5013987;28;20033;-88
2024/01/28 00:02:47;;;;;;;22.53;8.53;;;;;;;-145.18;100.00;46873.31;5015357;28;20628;-87
2024/01/28 00:05:13;;;;;;;19.77;7.20;;;;;;;-145.18;100.00;46873.31;4988568;28;20062;-87
2024/01/28 00:07:39;;;;;;;23.10;8.30;;;;;;;-145.18;100.00;46877.22;4997665;28;20026;-88
2024/01/28 00:10:06;;;;;;;24.23;7.87;;;;;;;-145.18;100.00;46881.13;4998046;28;20025;-87
2024/01/28 00:12:31;;;;;;;19.93;7.73;;;;;;;-145.18;100.00;46883.09;5015538;28;20030;-87
2024/01/28 00:14:57;;;;;;;24.07;8.63;;;;;;;-145.18;100.00;46883.09;5015697;28;20660;-88
2024/01/28 00:17:23;;;;;;;23.13;8.13;;;;;;;-145.18;100.00;46881.13;5015878;28;20064;-87
2024/01/28 00:19:48;;;;;;;20.67;8.43;;;;;;;-145.18;100.00;46883.09;5015262;28;20117;-89
2024/01/28 00:22:13;;;;;;;28.90;8.17;;;;;;;-145.18;100.00;46875.28;5019480;28;20041;-87
2024/01/28 00:24:39;;;;;;;21.67;8.67;;;;;;;-145.18;100.00;46873.31;5024105;28;20026;-87
2024/01/28 00:27:04;;;;;;;23.17;8.43;;;;;;;-145.18;100.00;46869.41;5014211;28;20382;-83
2024/01/28 00:29:30;;;;;;;16.20;7.53;;;;;;;-145.18;100.00;46869.41;4995730;28;20088;-84
2024/01/28 00:31:56;;;;;;;19.07;8.33;;;;;;;-145.18;100.00;46875.28;5012108;28;20022;-84
2024/01/28 00:34:21;;;;;;;19.63;8.07;;;;;;;-145.18;100.00;46879.19;5014491;28;20096;-83
2024/01/28 00:36:47;;;;;;;19.43;7.37;;;;;;;-145.18;100.00;46877.22;5014816;28;20783;-84
2024/01/28 00:39:13;;;;;;;20.80;8.40;;;;;;;-145.18;100.00;46883.09;4996699;28;20117;-84
2024/01/28 00:41:39;;;;;;;23.87;8.87;;;;;;;-145.18;100.00;46885.03;5014821;28;20497;-84
2024/01/28 00:44:04;;;;;;;22.10;8.93;;;;;;;-145.18;100.00;46881.13;4997313;28;20273;-83
2024/01/28 00:46:32;;;;;;;18.77;8.60;;;;;;;-145.18;100.00;46885.03;4995240;28;20022;-84
2024/01/28 00:48:57;;;;;;;19.73;7.63;;;;;;;-145.18;100.00;46883.09;4996805;28;20034;-84
2024/01/28 00:51:23;;;;;;;24.73;8.53;;;;;;;-145.18;100.00;46877.22;4994801;28;20255;-83
2024/01/28 00:53:48;;;;;;;24.37;8.97;;;;;;;-145.18;100.00;46879.19;5011980;28;20070;-85
2024/01/28 00:56:16;;;;;;;20.87;8.97;;;;;;;-145.18;100.00;46879.19;5012141;28;20176;-84
2024/01/28 00:58:42;;;;;;;22.10;8.57;;;;;;;-145.18;100.00;46879.19;5013397;28;20037;-84
2024/01/28 01:01:08;;;;;;;17.53;7.43;;;;;;;-145.18;100.00;46877.22;5029768;28;20325;-83
2024/01/28 01:03:33;;;;;;;19.60;8.27;;;;;;;-145.18;100.00;46875.28;5015497;28;20263;-83
2024/01/28 01:05:59;;;;;;;23.27;7.97;;;;;;;-145.18;100.00;46877.22;5001317;28;20061;-84
2024/01/28 01:08:24;;;;;;;18.33;8.00;;;;;;;-145.18;100.00;46873.31;5003255;28;20037;-84
2024/01/28 01:10:50;;;;;;;25.07;8.70;;;;;;;-145.18;100.00;46873.31;5013734;28;20104;-84
2024/01/28 01:13:16;;;;;;;18.53;7.53;;;;;;;-145.18;100.00;46875.28;5014674;28;20444;-84
2024/01/28 01:15:41;;;;;;;19.87;8.33;;;;;;;-145.18;100.00;46879.19;5014880;28;20694;-84
2024/01/28 01:18:07;;;;;;;27.67;8.43;;;;;;;-145.18;100.00;46879.19;5012066;28;20030;-83
2024/01/28 01:20:33;;;;;;;22.43;8.40;;;;;;;-145.18;100.00;46877.22;5012937;28;20029;-84
2024/01/28 01:22:58;;;;;;;18.13;7.70;;;;;;;-145.18;100.00;46875.28;5013283;28;20034;-84
2024/01/28 01:25:24;;;;;;;20.73;7.57;;;;;;;-145.18;100.00;46871.38;5025821;28;20413;-84
2024/01/28 01:27:52;;;;;;;14.47;6.53;;;;;;;-145.18;100.00;46877.22;4993685;28;20033;-84
2024/01/28 01:30:17;;;;;;;24.47;8.70;;;;;;;-145.18;100.00;46869.41;4999149;28;20025;-84
2024/01/28 01:32:43;;;;;;;17.73;7.67;;;;;;;-145.18;100.00;46879.19;4992224;28;20735;-84
2024/01/28 01:35:09;;;;;;;18.70;6.90;;;;;;;-145.18;100.00;46873.31;5019117;28;20104;-84
2024/01/28 01:37:34;;;;;;;18.23;7.33;;;;;;;-145.18;100.00;46875.28;5012758;28;20125;-84
2024/01/28 01:40:00;;;;;;;22.47;7.87;;;;;;;-145.18;100.00;46877.22;5013236;28;20058;-84
2024/01/28 01:42:26;;;;;;;20.70;8.27;;;;;;;-145.18;100.00;46875.28;5012830;28;20034;-84
2024/01/28 01:44:52;;;;;;;17.10;7.03;;;;;;;-145.18;100.00;46885.03;5000169;28;20061;-84
2024/01/28 01:47:18;;;;;;;16.80;8.17;;;;;;;-145.18;100.00;46877.22;5020904;28;20818;-86
2024/01/28 01:49:44;;;;;;;12.93;7.47;;;;;;;-145.18;100.00;46883.09;5013422;28;20026;-86
2024/01/28 01:52:09;;;;;;;17.40;7.23;;;;;;;-145.18;100.00;46881.13;5014117;28;20259;-86
2024/01/28 01:54:36;;;;;;;16.03;7.07;;;;;;;-145.18;100.00;46883.09;5013254;28;20029;-86
2024/01/28 01:57:01;;;;;;;22.60;8.37;;;;;;;-145.18;100.00;46883.09;5013121;28;20093;-87
2024/01/28 01:59:27;;;;;;;24.37;7.37;;;;;;;-145.18;100.00;46883.09;4996830;28;20333;-86
2024/01/28 02:01:55;;;;;;;19.53;7.50;;;;;;;-145.18;100.00;46883.09;5000538;28;20060;-86
2024/01/28 02:04:21;;;;;;;21.43;8.50;;;;;;;-145.18;100.00;46883.09;5032037;28;20029;-86
2024/01/28 02:06:49;;;;;;;21.50;8.53;;;;;;;-145.18;100.00;46887.00;5013327;28;20299;-86
2024/01/28 02:09:14;;;;;;;24.13;7.63;;;;;;;-145.18;100.00;46883.09;4995172;28;20373;-86
2024/01/28 02:11:41;;;;;;;19.53;7.90;;;;;;;-145.18;100.00;46881.13;4995229;28;20797;-86
2024/01/28 02:14:07;;;;;;;22.40;7.63;;;;;;;-145.18;100.00;46887.00;5025746;28;20057;-86
2024/01/28 02:16:32;;;;;;;16.43;7.70;;;;;;;-145.18;100.00;46887.00;5018985;28;20410;-85
2024/01/28 02:18:58;;;;;;;17.57;8.70;;;;;;;-145.18;100.00;46883.09;5025996;28;20390;-86
2024/01/28 02:21:23;;;;;;;19.23;7.93;;;;;;;-145.18;100.00;46887.00;5031160;28;20056;-86
2024/01/28 02:23:48;;;;;;;18.17;7.47;;;;;;;-145.18;100.00;46890.91;5019245;28;20542;-86
2024/01/28 02:26:14;;;;;;;21.20;8.33;;;;;;;-145.18;100.00;46885.03;5018068;28;20025;-85
2024/01/28 02:28:40;;;;;;;26.30;8.20;;;;;;;-145.18;100.00;46879.19;5014313;28;20061;-86
2024/01/28 02:31:05;;;;;;;21.47;8.43;;;;;;;-145.18;100.00;46883.09;5013106;28;20092;-86
2024/01/28 02:33:30;;;;;;;17.67;7.83;;;;;;;-145.18;100.00;46883.09;4994757;28;20053;-86
2024/01/28 02:35:56;;;;;;;23.27;7.97;;;;;;;-145.18;100.00;46887.00;5012753;28;20129;-86
2024/01/28 02:38:21;;;;;;;22.40;9.00;;;;;;;-145.18;100.00;46883.09;5012844;28;20150;-87
2024/01/28 02:40:47;;;;;;;19.40;9.47;;;;;;;-145.18;100.00;46887.00;5012341;28;20386;-86
2024/01/28 02:43:13;;;;;;;20.77;9.68;;;;;;;-145.18;100.00;46885.03;5015149;28;20034;-85
2024/01/28 02:45:38;;;;;;;21.63;8.97;;;;;;;-145.18;100.00;46890.91;4999017;28;20033;-86
2024/01/28 02:48:04;;;;;;;20.77;8.10;;;;;;;-145.18;100.00;46888.94;5031886;28;20036;-86
2024/01/28 02:50:29;;;;;;;20.40;9.30;;;;;;;-145.18;100.00;46892.84;5018731;28;20128;-86
2024/01/28 02:52:54;;;;;;;21.17;9.00;;;;;;;-145.18;100.00;46892.84;5031518;28;20022;-86
2024/01/28 02:55:20;;;;;;;17.47;8.73;;;;;;;-145.18;100.00;46888.94;5013677;28;20049;-86
2024/01/28 02:57:45;;;;;;;20.13;8.53;;;;;;;-145.18;100.00;46894.81;5011880;28;20482;-86
2024/01/28 03:00:11;;;;;;;17.83;8.23;;;;;;;-145.18;100.00;46898.72;5011766;28;20030;-86
2024/01/28 03:02:37;;;;;;;22.17;9.30;;;;;;;-145.18;100.00;46900.66;5004561;28;20500;-85
2024/01/28 03:05:03;;;;;;;22.95;8.93;;;;;;;-145.18;100.00;46896.75;5029712;28;20025;-85
2024/01/28 03:07:28;;;;;;;22.83;8.43;;;;;;;-145.18;100.00;46890.91;5013135;28;20048;-83
2024/01/28 03:09:54;;;;;;;19.60;8.53;;;;;;;-145.18;100.00;46885.03;5025664;28;20447;-83
2024/01/28 03:12:19;;;;;;;16.23;9.17;;;;;;;-145.18;100.00;46887.00;5021842;28;20030;-83
2024/01/28 03:14:45;;;;;;;23.90;9.60;;;;;;;-145.18;100.00;46888.94;5026369;28;20412;-83
2024/01/28 03:17:10;;;;;;;21.47;10.50;;;;;;;-145.18;100.00;46894.81;5008394;28;20025;-84
2024/01/28 03:19:36;;;;;;;23.93;9.93;;;;;;;-145.18;100.00;46890.91;5029398;28;20034;-83
2024/01/28 03:22:03;;;;;;;20.63;9.87;;;;;;;-145.18;100.00;46888.94;5025671;28;20421;-84
2024/01/28 03:24:28;;;;;;;21.52;9.95;;;;;;;-145.18;100.00;46888.94;5033724;28;20251;-83
2024/01/28 03:26:54;;;;;;;32.17;10.47;;;;;;;-145.18;100.00;46887.00;5024068;28;20034;-83
2024/01/28 03:29:20;;;;;;;20.13;9.70;;;;;;;-145.18;100.00;46887.00;4999402;28;20037;-83
2024/01/28 03:31:46;;;;;;;24.50;10.25;;;;;;;-145.18;100.00;46885.03;5025240;28;20084;-83
2024/01/28 03:34:12;;;;;;;26.73;11.48;;;;;;;-145.18;100.00;46890.91;4999089;28;20116;-83
2024/01/28 03:36:37;;;;;;;25.00;10.97;;;;;;;-145.18;100.00;46887.00;5007859;28;20517;-84
2024/01/28 03:39:04;;;;;;;21.87;10.13;;;;;;;-145.18;100.00;46885.03;5021045;28;20080;-83
2024/01/28 03:41:30;;;;;;;28.80;10.85;;;;;;;-145.18;100.00;46885.03;5034432;28;20362;-84
2024/01/28 03:43:55;;;;;;;25.97;10.53;;;;;;;-145.18;100.00;46888.94;5015681;28;20049;-83
2024/01/28 03:46:21;;;;;;;23.57;10.03;;;;;;;-145.18;100.00;46888.94;5034436;28;20033;-83
2024/01/28 03:48:46;;;;;;;23.10;9.40;;;;;;;-145.18;100.00;46888.94;5016056;28;20098;-83
2024/01/28 03:51:12;;;;;;;21.90;9.43;;;;;;;-145.18;100.00;46890.91;5034119;28;20033;-83
2024/01/28 03:53:37;;;;;;;27.70;9.43;;;;;;;-145.18;100.00;46892.84;5011779;28;20017;-84
2024/01/28 03:56:05;;;;;;;18.77;9.20;;;;;;;-145.18;100.00;46885.03;5007652;28;20090;-83
2024/01/28 03:58:30;;;;;;;20.13;9.15;;;;;;;-145.18;100.00;46888.94;5014511;28;20037;-82
2024/01/28 04:00:56;;;;;;;18.30;9.07;;;;;;;-145.18;100.00;46890.91;5033562;28;20037;-83
2024/01/28 04:03:22;;;;;;;20.50;9.23;;;;;;;-145.18;100.00;46888.94;5016511;28;20030;-83
2024/01/28 04:05:47;;;;;;;18.63;9.10;;;;;;;-145.18;100.00;46890.91;5024716;28;20045;-83
2024/01/28 04:08:12;;;;;;;24.97;9.67;;;;;;;-145.18;100.00;46887.00;5032867;28;20022;-83
2024/01/28 04:10:38;;;;;;;27.20;8.60;;;;;;;-145.18;100.00;46892.84;5023078;28;20034;-83
2024/01/28 04:13:04;;;;;;;23.70;9.03;;;;;;;-145.18;100.00;46892.84;5014216;28;20026;-84
2024/01/28 04:15:29;;;;;;;21.20;9.20;;;;;;;-145.18;100.00;46890.91;5016276;28;20037;-84
2024/01/28 04:17:54;;;;;;;23.20;9.80;;;;;;;-145.18;100.00;46885.03;5011198;28;20039;-82
2024/01/28 04:20:20;;;;;;;20.63;9.20;;;;;;;-145.18;100.00;46890.91;5015896;28;20437;-83
2024/01/28 04:22:45;;;;;;;22.50;9.53;;;;;;;-145.18;100.00;46888.94;5033371;28;20122;-82
2024/01/28 04:25:12;;;;;;;22.90;9.60;;;;;;;-145.18;100.00;46883.09;5000461;28;20040;-82
2024/01/28 04:27:38;;;;;;;20.60;8.95;;;;;;;-145.18;100.00;46888.94;5013309;28;20534;-82
2024/01/28 04:30:05;;;;;;;17.90;8.97;;;;;;;-145.18;100.00;46885.03;5007393;28;20193;-82
2024/01/28 04:32:30;;;;;;;22.65;10.38;;;;;;;-145.18;100.00;46883.09;5028989;28;20030;-82
2024/01/28 04:34:56;;;;;;;24.63;9.77;;;;;;;-145.18;100.00;46888.94;5002416;28;20422;-82
2024/01/28 04:37:22;;;;;;;22.53;10.10;;;;;;;-145.18;100.00;46887.00;5026572;28;20100;-83
2024/01/28 04:39:48;;;;;;;20.95;9.82;;;;;;;-145.18;100.00;46883.09;5033068;28;20025;-83
2024/01/28 04:42:13;;;;;;;19.60;9.90;;;;;;;-145.18;100.00;46883.09;5033486;28;20523;-83
2024/01/28 04:44:38;;;;;;;21.90;9.47;;;;;;;-145.18;100.00;46883.09;5032881;28;20060;-83
2024/01/28 04:47:04;;;;;;;23.33;9.80;;;;;;;-145.18;100.00;46883.09;5029573;28;21406;-83
2024/01/28 04:49:30;;;;;;;18.13;9.07;;;;;;;-145.18;100.00;46885.03;5022972;28;20052;-83
2024/01/28 04:51:55;;;;;;;21.97;9.47;;;;;;;-145.18;100.00;46887.00;5031486;28;20030;-82
2024/01/28 04:54:22;;;;;;;20.57;8.83;;;;;;;-145.18;100.00;46888.94;5006036;28;20030;-83
2024/01/28 04:56:48;;;;;;;21.73;10.68;;;;;;;-145.18;100.00;46885.03;5009472;28;20022;-81
2024/01/28 04:59:13;;;;;;;25.80;9.67;;;;;;;-145.18;100.00;46888.94;5014695;28;20140;-82
2024/01/28 05:01:39;;;;;;;22.57;9.33;;;;;;;-145.18;100.00;46890.91;5012242;28;20052;-82
2024/01/28 05:04:04;;;;;;;23.47;10.67;;;;;;;-145.18;100.00;46888.94;5014162;28;20033;-83
2024/01/28 05:06:36;;;;;;;18.20;8.97;;;;;;;-145.18;100.00;46888.94;5012450;28;20049;-82
2024/01/28 05:09:03;;;;;;;18.98;9.27;;;;;;;-145.18;100.00;46888.94;5014258;28;20041;-83
2024/01/28 05:11:29;;;;;;;24.15;9.30;;;;;;;-145.18;100.00;46890.91;5029739;28;20478;-83
2024/01/28 05:13:55;;;;;;;21.63;9.70;;;;;;;-145.18;100.00;46892.84;5022689;28;20033;-83
2024/01/28 05:16:20;;;;;;;21.33;9.70;;;;;;;-145.18;100.00;46894.81;5030352;28;20448;-83
2024/01/28 05:18:45;;;;;;;24.80;8.87;;;;;;;-145.18;100.00;46892.84;5032121;28;20025;-83
2024/01/28 05:21:11;;;;;;;16.40;9.30;;;;;;;-145.18;100.00;46894.81;5030698;28;20034;-83
2024/01/28 05:23:36;;;;;;;18.60;9.03;;;;;;;-145.18;100.00;46894.81;5004174;28;20463;-83
2024/01/28 05:26:02;;;;;;;22.23;9.37;;;;;;;-145.18;100.00;46894.81;4982755;28;20038;-83
2024/01/28 05:28:27;;;;;;;22.07;10.50;;;;;;;-145.18;100.00;46898.72;5014746;28;20112;-83
2024/01/28 05:30:52;;;;;;;21.27;10.07;;;;;;;-145.18;100.00;46896.75;5008770;28;20026;-83
2024/01/28 05:33:18;;;;;;;19.60;9.53;;;;;;;-145.18;100.00;46900.66;5014837;28;20091;-83
2024/01/28 05:35:43;;;;;;;20.40;9.13;;;;;;;-145.18;100.00;46898.72;5011970;28;20108;-84
2024/01/28 05:38:09;;;;;;;20.77;9.63;;;;;;;-145.18;100.00;46898.72;4994698;28;20026;-83
2024/01/28 05:40:34;;;;;;;25.30;9.60;;;;;;;-145.18;100.00;46898.72;5017740;28;20600;-83
2024/01/28 05:43:00;;;;;;;22.63;9.47;;;;;;;-145.18;100.00;46894.81;4998106;28;20053;-83
2024/01/28 05:45:26;;;;;;;22.10;9.15;;;;;;;-145.18;100.00;46896.75;4965248;28;20103;-84
2024/01/28 05:47:51;;;;;;;20.17;8.30;;;;;;;-145.18;100.00;46892.84;5011110;28;20282;-83
2024/01/28 05:50:16;;;;;;;20.33;8.70;;;;;;;-145.18;100.00;46898.72;5028197;28;20367;-83
2024/01/28 05:52:42;;;;;;;20.20;8.13;;;;;;;-145.18;100.00;46896.75;5014581;28;20152;-84
2024/01/28 05:55:07;;;;;;;21.70;8.47;;;;;;;-145.18;100.00;46892.84;5014950;28;20436;-83
2024/01/28 05:57:33;;;;;;;20.20;7.93;;;;;;;-145.18;100.00;46898.72;4998897;28;20075;-84
2024/01/28 05:59:59;;;;;;;20.50;7.83;;;;;;;-145.18;100.00;46896.75;5013557;28;20176;-83
2024/01/28 06:02:24;;;;;;;23.40;7.90;;;;;;;-145.18;100.00;46900.66;5011796;28;20018;-83
2024/01/28 06:04:49;;;;;;;24.50;7.90;;;;;;;-145.18;100.00;46894.81;4996554;28;20033;-84
2024/01/28 06:07:15;;;;;;;20.37;7.97;;;;;;;-145.18;100.00;46898.72;5013400;28;20392;-84
2024/01/28 06:09:40;;;;;;;14.00;7.23;;;;;;;-145.18;100.00;46902.63;4996582;28;20120;-84
2024/01/28 06:12:06;;;;;;;16.50;7.10;;;;;;;-145.18;100.00;46894.81;4993202;28;20073;-83
2024/01/28 06:14:31;;;;;;;18.27;7.60;;;;;;;-145.18;100.00;46896.75;5013855;28;20032;-83
2024/01/28 06:16:57;;;;;;;16.53;7.60;;;;;;;-145.18;100.00;46894.81;5020877;28;20048;-83
2024/01/28 06:19:23;;;;;;;24.50;7.72;;;;;;;-145.18;100.00;46896.75;4994194;28;20092;-84
2024/01/28 06:21:48;;;;;;;18.73;7.07;;;;;;;-145.18;100.00;46896.75;5003168;28;20590;-84
2024/01/28 06:24:14;;;;;;;18.10;7.57;;;;;;;-145.18;100.00;46896.75;5014954;28;20062;-84
2024/01/28 06:26:39;;;;;;;18.57;7.70;;;;;;;-145.18;100.00;46892.84;5018538;28;20106;-83
2024/01/28 06:29:05;;;;;;;14.40;6.57;;;;;;;-145.18;100.00;46894.81;5023099;28;20365;-83
2024/01/28 06:31:30;;;;;;;16.57;7.20;;;;;;;-145.18;100.00;46890.91;5024517;28;20025;-84
2024/01/28 06:33:55;;;;;;;22.53;7.77;;;;;;;-145.18;100.00;46890.91;5011497;28;20117;-84
2024/01/28 06:36:21;;;;;;;12.70;6.60;;;;;;;-145.18;100.00;46898.72;5020143;28;20033;-84
2024/01/28 06:38:47;;;;;;;21.00;7.17;;;;;;;-145.18;100.00;46892.84;5013895;28;20034;-86
2024/01/28 06:41:16;;;;;;;14.77;7.20;;;;;;;-145.18;100.00;46894.81;5017947;28;20029;-87
2024/01/28 06:43:42;;;;;;;17.90;7.10;;;;;;;-145.18;100.00;46896.75;5016923;28;20037;-86
2024/01/28 06:46:08;;;;;;;17.63;6.70;;;;;;;-145.18;100.00;46896.75;5017686;28;20034;-87
2024/01/28 06:48:33;;;;;;;18.47;7.67;;;;;;;-145.18;100.00;46892.84;5012729;28;20060;-87
2024/01/28 06:50:59;;;;;;;21.93;6.70;;;;;;;-145.18;100.00;46894.81;5000195;28;20038;-87
2024/01/28 06:53:24;;;;;;;17.23;7.00;;;;;;;-145.18;100.00;46898.72;5014436;28;20451;-88
2024/01/28 06:55:50;;;;;;;15.73;6.97;;;;;;;-145.18;100.00;46898.72;5003940;28;20037;-83
2024/01/28 06:58:18;;;;;;;19.50;7.93;;;;;;;-145.18;100.00;46894.81;5020170;28;20061;-87
2024/01/28 07:00:44;;;;;;;21.17;6.72;;;;;;;-145.18;100.00;46894.81;5002668;28;20037;-85
2024/01/28 07:03:09;;;;;;;18.53;7.43;;;;;;;-145.18;100.00;46892.84;4994580;28;20046;-84
2024/01/28 07:05:35;;;;;;;18.37;7.53;;;;;;;-145.18;100.00;46892.84;5011083;28;20050;-84
2024/01/28 07:08:00;;;;;;;20.37;8.17;;;;;;;-145.18;100.00;46887.00;5021131;28;20030;-84
2024/01/28 07:10:26;;;;;;;17.27;8.13;;;;;;;-145.18;100.00;46887.00;5005571;28;20021;-84
2024/01/28 07:12:51;;;;;;;18.70;8.23;;;;;;;-145.18;100.00;46888.94;5014616;28;20149;-83
2024/01/28 07:15:17;;;;;;;12.67;7.53;;;;;;;-145.18;100.00;46888.94;5012352;28;20030;-84
2024/01/28 07:17:42;;;;;;;19.73;9.50;;;;;;;-145.18;100.00;46883.09;5021016;28;20030;-82
2024/01/28 07:20:09;;;;;;;17.43;7.73;;;;;;;-145.18;100.00;46877.22;4977586;28;20046;-84
2024/01/28 07:22:34;;;;;;;18.70;8.32;;;;;;;-145.18;100.00;46879.19;5017607;28;20034;-90
2024/01/28 07:24:59;;;;;;;16.97;8.00;;;;;;;-145.18;100.00;46881.13;5002536;28;20455;-87
2024/01/28 07:27:25;;;;;;;18.10;7.67;;;;;;;-145.18;100.00;46883.09;5010352;28;20052;-88
2024/01/28 07:29:50;;;;;;;15.37;8.13;;;;;;;-145.18;100.00;46877.22;4995086;28;20053;-90
2024/01/28 07:32:16;;;;;;;16.73;8.27;;;;;;;-145.18;100.00;46869.41;5012318;28;20022;-90
2024/01/28 07:34:41;;;;;;;16.27;8.60;;;;;;;-145.18;100.00;46873.31;4992980;28;20079;-90
2024/01/28 07:37:07;;;;;;;20.83;9.73;;;;;;;-145.18;100.00;46879.19;5019180;28;20045;-88
2024/01/28 07:39:32;;;;;;;23.27;8.40;;;;;;;-145.18;100.00;46873.31;5019481;28;20110;-91
2024/01/28 07:42:00;;;;;;;18.53;7.80;;;;;;;-145.18;100.00;46869.41;4993772;28;20029;-89
2024/01/28 07:44:26;;;;;;;18.65;8.13;;;;;;;-145.18;100.00;46869.41;4985784;28;20037;-87
2024/01/28 07:46:52;;;;;;;21.07;7.93;;;;;;;-145.18;100.00;46861.59;5013714;28;20038;-87
2024/01/28 07:49:18;;;;;;;19.48;7.95;;;;;;;-145.18;100.00;46865.50;5027639;28;20688;-88
2024/01/28 07:51:44;;;;;;;27.17;9.15;;;;;;;-145.18;100.00;46859.63;5004251;28;20049;-85
2024/01/28 07:54:09;;;;;;;18.53;7.57;;;;;;;-145.18;100.00;46857.69;5016532;28;20038;-86
2024/01/28 07:56:34;;;;;;;19.47;8.83;;;;;;;-145.18;100.00;46853.78;5002178;28;20061;-81
2024/01/28 07:59:00;;;;;;;21.63;9.97;;;;;;;-145.18;100.00;46853.78;5008301;28;20057;-79
2024/01/28 08:01:29;;;;;;;21.00;8.60;;;;;;;-145.18;100.00;46851.81;5013154;28;20034;-83
2024/01/28 08:03:55;;;;;;;18.45;7.78;;;;;;;-145.18;100.00;46859.63;4999353;28;20425;-82
2024/01/28 08:06:21;;;;;;;14.73;8.00;;;;;;;-145.18;100.00;46849.88;5011147;28;20064;-82
2024/01/28 08:08:46;;;;;;;19.77;8.00;;;;;;;-145.18;100.00;46851.81;5024660;28;20494;-82
2024/01/28 08:11:11;;;;;;;20.47;7.83;;;;;;;-145.18;100.00;46847.91;5025371;28;20034;-83
2024/01/28 08:13:37;;;;;;;17.90;7.90;;;;;;;-145.18;100.00;46847.91;5032064;28;20053;-83
2024/01/28 08:16:03;;;;;;;15.20;6.87;;;;;;;-145.18;100.00;46845.97;5016650;28;20042;-82
2024/01/28 08:18:29;;;;;;;23.13;7.40;;;;;;;-145.18;100.00;46844.00;5006196;28;20083;-83
2024/01/28 08:20:55;;;;;;;14.77;7.60;;;;;;;-145.18;100.00;46836.19;5011710;28;20038;-83
2024/01/28 08:23:20;;;;;;;19.83;7.97;;;;;;;-145.18;100.00;46838.16;5005838;28;20034;-82
2024/01/28 08:25:46;;;;;;;14.70;8.03;;;;;;;-145.18;100.00;46838.16;5030753;28;20040;-81
2024/01/28 08:28:11;;;;;;;17.50;7.83;;;;;;;-145.18;100.00;46832.28;5025956;28;20053;-83
2024/01/28 08:30:37;;;;;;;22.67;8.20;;;;;;;-145.18;100.00;46840.09;5016353;28;20064;-81
2024/01/28 08:33:03;;;;;;;17.47;7.53;;;;;;;-145.18;100.00;46832.28;5013364;28;20072;-83
2024/01/28 08:35:29;;;;;;;17.80;7.63;;;;;;;-145.18;100.00;46834.25;4993783;28;20089;-83
2024/01/28 08:37:54;;;;;;;15.77;8.48;;;;;;;-145.18;100.00;46832.28;5011871;28;20041;-83
2024/01/28 08:40:20;;;;;;;16.63;7.70;;;;;;;-145.18;100.00;46834.25;5020389;28;20569;-83
2024/01/28 08:42:45;;;;;;;12.43;7.30;;;;;;;-145.18;100.00;46826.44;5012198;28;20030;-82
2024/01/28 08:45:11;;;;;;;13.67;7.80;;;;;;;-145.18;100.00;46826.44;4994128;28;20480;-82
2024/01/28 08:47:36;;;;;;;18.23;7.23;;;;;;;-145.18;100.00;46828.38;5018516;28;20104;-82
2024/01/28 08:50:03;;;;;;;14.43;7.60;;;;;;;-145.18;100.00;46828.38;5012631;28;20050;-82
2024/01/28 08:52:28;;;;;;;16.33;7.75;;;;;;;-145.18;100.00;46826.44;4996273;28;20068;-81
2024/01/28 08:54:53;;;;;;;17.90;7.10;;;;;;;-145.18;100.00;46820.56;5013139;28;20081;-82
2024/01/28 08:57:19;;;;;;;18.53;7.67;;;;;;;-145.18;100.00;46822.53;5013953;28;20034;-81
2024/01/28 08:59:44;;;;;;;22.17;8.00;;;;;;;-145.18;100.00;46818.63;5013963;28;20045;-82
2024/01/28 09:02:09;;;;;;;21.83;8.10;;;;;;;-145.18;100.00;46814.72;5013538;28;20037;-82
2024/01/28 09:04:35;;;;;;;15.13;8.10;;;;;;;-145.18;100.00;46816.66;5012163;28;20116;-81
2024/01/28 09:07:00;;;;;;;15.20;7.03;;;;;;;-145.18;100.00;46808.84;5016944;28;20065;-80
2024/01/28 09:09:26;;;;;;;11.77;6.57;;;;;;;-145.18;100.00;46814.72;5013354;28;20385;-81
2024/01/28 09:11:51;;;;;;;16.37;6.57;;;;;;;-145.18;100.00;46808.84;5002679;28;20485;-81
2024/01/28 09:14:17;;;;;;;16.23;7.10;;;;;;;-145.18;100.00;46804.94;4998427;28;20034;-82
2024/01/28 09:16:42;;;;;;;16.77;6.73;;;;;;;-145.18;100.00;46804.94;5028784;28;20438;-82
2024/01/28 09:19:07;;;;;;;12.80;6.10;;;;;;;-145.18;100.00;46801.03;4984444;28;20033;-81
2024/01/28 09:21:33;;;;;;;15.47;6.60;;;;;;;-145.18;100.00;46797.13;5026813;28;20462;-80
2024/01/28 09:23:58;;;;;;;13.30;6.30;;;;;;;-145.18;100.00;46797.13;5017374;28;20040;-81
2024/01/28 09:26:24;;;;;;;12.27;6.60;;;;;;;-145.18;100.00;46795.19;5012804;28;20449;-82
2024/01/28 09:28:50;;;;;;;14.23;6.27;;;;;;;-145.18;100.00;46799.09;4995149;28;20045;-82
2024/01/28 09:31:17;;;;;;;16.03;6.23;;;;;;;-145.18;100.00;46793.22;5027746;28;20719;-82
2024/01/28 09:33:43;;;;;;;15.90;7.13;;;;;;;-145.18;100.00;46787.38;5000321;28;20033;-82
2024/01/28 09:36:08;;;;;;;18.00;6.10;;;;;;;-145.18;100.00;46789.31;5012108;28;20624;-82
2024/01/28 09:38:34;;;;;;;13.63;6.00;;;;;;;-145.18;100.00;46785.41;5011957;28;20034;-83
2024/01/28 09:41:09;;;;;;;12.67;5.80;;;;;;;-145.18;100.00;46785.41;5027834;28;20132;-84
2024/01/28 09:43:39;;;;;;;11.00;6.00;;;;;;;-145.18;100.00;46779.56;5023414;28;20561;-84
2024/01/28 09:46:05;;;;;;;23.07;6.60;;;;;;;-145.18;100.00;46779.56;5028018;28;20287;-83
2024/01/28 09:48:30;;;;;;;17.07;5.60;;;;;;;-145.18;100.00;46773.69;4989701;28;20344;-86
2024/01/28 09:50:56;;;;;;;19.67;6.23;;;;;;;-145.18;100.00;46771.75;5009992;28;20136;-86
2024/01/28 09:53:22;;;;;;;17.73;6.50;;;;;;;-145.18;100.00;46773.69;5013545;28;20025;-84
2024/01/28 09:55:47;;;;;;;13.10;6.37;;;;;;;-145.18;100.00;46773.69;5011980;28;20026;-81
2024/01/28 09:58:12;;;;;;;16.10;6.00;;;;;;;-145.18;100.00;46769.78;4994021;28;20040;-86
2024/01/28 10:00:38;;;;;;;10.77;4.73;;;;;;;-145.18;100.00;46767.84;5017277;28;20075;-80
2024/01/28 10:03:04;;;;;;;14.47;6.47;;;;;;;-145.18;100.00;46763.91;5013634;28;20029;-81
2024/01/28 10:05:30;;;;;;;14.37;5.90;;;;;;;-145.18;100.00;46763.91;5018040;28;20073;-81
2024/01/28 10:08:04;;;;;;;11.57;6.00;;;;;;;-145.18;100.00;46760.00;5001600;28;20133;-80
2024/01/28 10:10:33;;;;;;;14.17;5.30;;;;;;;-145.18;100.00;46756.09;5018558;28;20255;-80
2024/01/28 10:12:59;;;;;;;14.03;5.77;;;;;;;-145.18;100.00;46750.25;5003004;28;20312;-81
2024/01/28 10:15:28;;;;;;;13.27;5.90;;;;;;;-145.18;100.00;46746.34;5019605;28;20268;-80
2024/01/28 10:17:54;;;;;;;11.90;5.10;;;;;;;-145.18;100.00;46748.28;5020960;28;20029;-81
2024/01/28 10:20:20;;;;;;;14.10;5.57;;;;;;;-145.18;100.00;46746.34;4985959;28;20268;-81
2024/01/28 10:22:46;;;;;;;10.23;4.87;;;;;;;-145.18;100.00;46742.44;5010760;28;20475;-81
2024/01/28 10:25:15;;;;;;;11.17;5.47;;;;;;;-145.18;100.00;46746.34;5000066;28;20314;-81
2024/01/28 10:27:41;;;;;;;14.17;5.23;;;;;;;-145.18;100.00;46742.44;5022171;28;20025;-81
2024/01/28 10:30:07;;;;;;;16.83;5.63;;;;;;;-145.18;100.00;46736.56;5020444;28;20282;-81
2024/01/28 10:32:33;;;;;;;11.80;5.73;;;;;;;-145.18;100.00;46730.72;4999743;28;20338;-81
2024/01/28 10:34:58;;;;;;;9.77;5.00;;;;;;;-145.18;100.00;46730.72;4994202;28;20282;-81
2024/01/28 10:37:27;;;;;;;11.77;5.57;;;;;;;-145.18;100.00;46730.72;5015354;28;20482;-80
2024/01/28 10:39:56;;;;;;;12.40;5.20;;;;;;;-145.18;100.00;46726.81;5011640;28;20112;-81
2024/01/28 10:42:25;;;;;;;14.33;5.37;;;;;;;-145.18;100.00;46730.72;4979785;28;20303;-80
2024/01/28 10:44:53;;;;;;;12.80;6.43;;;;;;;-145.18;100.00;46722.91;5009868;28;20255;-80
2024/01/28 10:47:21;;;;;;;11.80;5.00;;;;;;;-145.18;100.00;46720.94;5024958;28;20263;-80
2024/01/28 10:49:51;;;;;;;8.37;4.90;;;;;;;-145.18;100.00;46726.81;4993883;28;20255;-81
2024/01/28 10:52:19;;;;;;;9.53;5.50;;;;;;;-145.18;100.00;46722.91;5011568;28;20293;-80
2024/01/28 10:54:46;;;;;;;8.87;5.27;;;;;;;-145.18;100.00;46722.91;5012020;28;20729;-80